createdAt,value
2022-08-22T00:03:10.471Z,91.10
2022-08-22T00:03:12.734Z,88.96
2022-08-22T00:04:07.815Z,91.47
2022-08-22T00:06:43.903Z,91.28
2022-08-22T00:09:37.831Z,91.32
2022-08-22T00:12:19.791Z,91.73
2022-08-22T00:15:42.256Z,91.83
2022-08-22T00:18:20.320Z,92.16
2022-08-22T00:21:05.815Z,91.79
2022-08-22T00:23:45.609Z,91.63
2022-08-22T00:26:30.124Z,92.06
2022-08-22T00:29:02.940Z,92.28
2022-08-22T00:31:35.156Z,91.93
2022-08-22T00:34:08.206Z,92.01
2022-08-22T00:36:59.116Z,92.01
2022-08-22T00:39:31.629Z,91.81
2022-08-22T00:42:10.462Z,92.50
2022-08-22T00:44:43.095Z,92.46
2022-08-22T00:47:32.163Z,92.59
2022-08-22T00:50:17.749Z,92.45
2022-08-22T00:53:02.644Z,92.79
2022-08-22T00:55:32.160Z,93.34
2022-08-22T00:58:38.805Z,93.56
2022-08-22T01:01:09.837Z,93.73
2022-08-22T01:03:42.250Z,93.62
2022-08-22T01:06:44.069Z,93.35
2022-08-22T01:09:25.908Z,93.24
2022-08-22T01:12:11.873Z,92.92
2022-08-22T01:14:48.278Z,93.31
2022-08-22T01:17:35.866Z,93.03
2022-08-22T01:20:50.395Z,92.74
2022-08-22T01:23:19.576Z,92.69
2022-08-22T01:26:30.140Z,93.32
2022-08-22T01:29:11.608Z,93.17
2022-08-22T01:32:15.645Z,93.45
2022-08-22T01:34:54.047Z,93.19
2022-08-22T01:37:53.950Z,93.00
2022-08-22T01:40:35.940Z,92.91
2022-08-22T01:43:59.062Z,93.08
2022-08-22T01:46:46.550Z,93.14
2022-08-22T01:49:29.562Z,93.22
2022-08-22T01:52:04.166Z,93.16
2022-08-22T01:54:43.390Z,93.10
2022-08-22T01:57:11.305Z,92.99
2022-08-22T01:59:44.176Z,93.47
2022-08-22T02:02:32.069Z,93.13
2022-08-22T02:05:22.008Z,92.98
2022-08-22T02:08:10.247Z,93.14
2022-08-22T02:11:01.471Z,93.14
2022-08-22T02:13:49.844Z,93.07
2022-08-22T02:16:36.185Z,93.61
2022-08-22T02:19:11.698Z,93.75
2022-08-22T02:22:04.455Z,93.96
2022-08-22T02:24:33.577Z,94.07
2022-08-22T02:27:35.338Z,93.89
2022-08-22T02:30:13.032Z,93.85
2022-08-22T02:32:58.219Z,93.86
2022-08-22T02:35:35.526Z,93.75
2022-08-22T02:38:42.797Z,93.92
2022-08-22T02:41:09.136Z,94.02
2022-08-22T02:43:43.693Z,94.21
2022-08-22T02:46:30.088Z,94.07
2022-08-22T02:49:23.103Z,94.15
2022-08-22T02:52:14.525Z,94.22
2022-08-22T02:55:00.782Z,94.38
2022-08-22T02:57:39.691Z,94.53
2022-08-22T03:00:32.673Z,94.81
2022-08-22T03:02:59.469Z,94.67
2022-08-22T03:05:28.769Z,94.60
2022-08-22T03:08:24.915Z,94.37
2022-08-22T03:11:24.352Z,94.35
2022-08-22T03:14:04.766Z,94.15
2022-08-22T03:16:48.540Z,94.36
2022-08-22T03:19:49.317Z,94.36
2022-08-22T03:22:35.952Z,94.18
2022-08-22T03:25:14.484Z,93.93
2022-08-22T03:27:49.467Z,93.89
2022-08-22T03:30:21.765Z,93.89
2022-08-22T03:32:52.060Z,93.86
2022-08-22T03:35:49.780Z,93.67
2022-08-22T03:38:34.538Z,93.51
2022-08-22T03:41:09.932Z,93.48
2022-08-22T03:43:58.273Z,93.43
2022-08-22T03:47:01.947Z,93.42
2022-08-22T03:49:48.660Z,93.64
2022-08-22T03:52:59.986Z,93.63
2022-08-22T03:55:52.145Z,94.21
2022-08-22T03:58:30.664Z,94.15
2022-08-22T04:01:23.384Z,94.17
2022-08-22T04:03:59.902Z,94.29
2022-08-22T04:06:45.251Z,94.35
2022-08-22T04:09:44.501Z,94.34
2022-08-22T04:12:41.227Z,94.36
2022-08-22T04:15:39.710Z,94.39
2022-08-22T04:18:41.715Z,94.55
2022-08-22T04:21:11.765Z,94.37
2022-08-22T04:24:10.933Z,94.61
2022-08-22T04:26:58.078Z,95.01
2022-08-22T04:29:27.494Z,95.04
2022-08-22T04:32:04.019Z,95.10
2022-08-22T04:34:37.598Z,95.08
2022-08-22T04:37:14.595Z,94.99
2022-08-22T04:39:58.855Z,94.40
2022-08-22T04:42:47.878Z,94.84
2022-08-22T04:45:23.785Z,94.45
2022-08-22T04:47:56.877Z,94.25
2022-08-22T04:50:28.917Z,94.30
2022-08-22T04:53:32.601Z,93.84
2022-08-22T04:56:10.531Z,93.78
2022-08-22T04:59:01.257Z,94.11
2022-08-22T05:01:47.995Z,93.85
2022-08-22T05:04:30.533Z,93.69
2022-08-22T05:07:05.292Z,93.86
2022-08-22T05:09:36.011Z,93.68
2022-08-22T05:12:11.913Z,93.68
2022-08-22T05:14:44.568Z,93.75
2022-08-22T05:17:17.046Z,94.21
2022-08-22T05:19:50.605Z,94.00
2022-08-22T05:22:23.793Z,93.64
2022-08-22T05:24:56.284Z,94.28
2022-08-22T05:27:30.491Z,94.52
2022-08-22T05:30:18.685Z,94.50
2022-08-22T05:32:53.053Z,94.40
2022-08-22T05:35:32.685Z,94.08
2022-08-22T05:37:59.952Z,93.70
2022-08-22T05:40:29.105Z,93.88
2022-08-22T05:42:57.693Z,94.05
2022-08-22T05:45:26.364Z,93.58
2022-08-22T05:48:00.026Z,93.15
2022-08-22T05:50:37.860Z,92.99
2022-08-22T05:53:20.451Z,93.00
2022-08-22T05:55:49.923Z,91.41
2022-08-22T05:58:43.742Z,88.81
2022-08-22T06:01:35.349Z,87.61
2022-08-22T06:04:37.599Z,86.53
2022-08-22T06:07:23.465Z,84.27
2022-08-22T06:10:32.978Z,83.16
2022-08-22T06:13:14.053Z,82.15
2022-08-22T06:15:56.948Z,83.08
2022-08-22T06:18:26.908Z,82.37
2022-08-22T06:21:00.647Z,81.19
2022-08-22T06:23:33.803Z,81.12
2022-08-22T06:26:01.759Z,80.42
2022-08-22T06:28:34.249Z,80.36
2022-08-22T06:31:03.447Z,79.06
2022-08-22T06:33:35.128Z,77.84
2022-08-22T06:36:25.425Z,76.73
2022-08-22T06:38:53.857Z,76.98
2022-08-22T06:41:22.783Z,74.68
2022-08-22T06:43:52.695Z,76.62
2022-08-22T06:46:22.117Z,76.00
2022-08-22T06:48:49.133Z,74.77
2022-08-22T06:51:17.843Z,74.44
2022-08-22T06:53:48.475Z,76.08
2022-08-22T06:56:25.347Z,74.06
2022-08-22T06:58:58.454Z,75.26
2022-08-22T07:01:31.072Z,73.82
2022-08-22T07:04:08.147Z,72.90
2022-08-22T07:06:41.485Z,73.14
2022-08-22T07:09:19.814Z,73.10
2022-08-22T07:11:46.685Z,73.46
2022-08-22T07:14:17.314Z,72.87
2022-08-22T07:16:57.620Z,69.02
2022-08-22T07:19:28.190Z,71.26
2022-08-22T07:21:55.897Z,67.73
2022-08-22T07:24:28.377Z,67.61
2022-08-22T07:27:04.707Z,65.46
2022-08-22T07:30:13.931Z,62.85
2022-08-22T07:32:46.248Z,63.29
2022-08-22T07:35:17.639Z,62.73
2022-08-22T07:37:53.568Z,62.65
2022-08-22T07:40:41.699Z,62.07
2022-08-22T07:43:26.880Z,59.37
2022-08-22T07:46:19.229Z,60.86
2022-08-22T07:49:08.105Z,60.78
2022-08-22T07:51:42.972Z,61.57
2022-08-22T07:54:14.210Z,62.50
2022-08-22T07:56:46.450Z,62.62
2022-08-22T07:59:17.169Z,62.36
2022-08-22T08:01:46.777Z,63.38
2022-08-22T08:04:18.939Z,60.28
2022-08-22T08:06:50.671Z,61.09
2022-08-22T08:09:19.615Z,61.02
2022-08-22T08:11:51.784Z,60.98
2022-08-22T08:14:21.900Z,57.56
2022-08-22T08:16:51.312Z,58.00
2022-08-22T08:19:19.842Z,54.67
2022-08-22T08:21:53.576Z,55.19
2022-08-22T08:24:28.920Z,54.78
2022-08-22T08:27:25.237Z,53.74
2022-08-22T08:29:58.817Z,52.45
2022-08-22T08:32:30.210Z,51.37
2022-08-22T08:34:56.707Z,49.16
2022-08-22T08:37:33.390Z,48.28
2022-08-22T08:40:02.619Z,50.54
2022-08-22T08:43:10.915Z,47.13
2022-08-22T08:46:15.016Z,48.08
2022-08-22T08:49:25.195Z,45.92
2022-08-22T08:52:21.126Z,45.36
2022-08-22T08:55:21.925Z,46.06
2022-08-22T08:58:06.736Z,48.12
2022-08-22T09:00:45.766Z,46.67
2022-08-22T09:03:53.099Z,45.60
2022-08-22T09:06:52.918Z,46.58
2022-08-22T09:09:41.705Z,46.41
2022-08-22T09:12:56.149Z,48.55
2022-08-22T09:16:02.249Z,44.98
2022-08-22T09:18:51.075Z,47.23
2022-08-22T09:21:30.535Z,45.93
2022-08-22T09:24:23.261Z,45.00
2022-08-22T09:26:57.225Z,46.03
2022-08-22T09:29:54.496Z,45.92
2022-08-22T09:32:42.902Z,47.73
2022-08-22T09:38:34.627Z,44.94
2022-08-22T09:40:16.124Z,48.13
2022-08-22T09:41:13.496Z,45.81
2022-08-22T09:43:52.184Z,44.45
2022-08-22T09:46:29.444Z,41.70
2022-08-22T09:49:16.572Z,43.30
2022-08-22T09:51:54.967Z,42.93
2022-08-22T09:54:35.782Z,42.33
2022-08-22T09:57:16.628Z,41.05
2022-08-22T10:00:16.281Z,40.45
2022-08-22T10:03:32.983Z,40.01
2022-08-22T10:06:12.717Z,37.89
2022-08-22T10:08:56.453Z,38.61
2022-08-22T10:11:26.818Z,38.99
2022-08-22T10:14:08.029Z,41.72
2022-08-22T10:17:11.774Z,40.93
2022-08-22T10:19:40.778Z,40.06
2022-08-22T10:22:23.049Z,41.61
2022-08-22T10:25:07.918Z,43.33
2022-08-22T10:27:40.303Z,40.13
2022-08-22T10:30:13.365Z,40.88
2022-08-22T10:32:59.123Z,37.99
2022-08-22T10:35:40.694Z,37.13
2022-08-22T10:38:15.473Z,37.58
2022-08-22T10:40:53.069Z,36.44
2022-08-22T10:43:21.827Z,36.56
2022-08-22T10:46:03.625Z,36.07
2022-08-22T10:48:47.063Z,38.16
2022-08-22T10:51:35.546Z,40.78
2022-08-22T10:54:29.315Z,38.66
2022-08-22T10:57:31.210Z,35.62
2022-08-22T11:00:25.618Z,41.09
2022-08-22T11:03:20.008Z,37.90
2022-08-22T11:05:50.818Z,36.48
2022-08-22T11:08:34.601Z,34.49
2022-08-22T11:11:04.120Z,39.62
2022-08-22T11:14:08.341Z,38.30
2022-08-22T11:16:46.815Z,40.70
2022-08-22T11:19:38.374Z,39.59
2022-08-22T11:22:42.521Z,41.74
2022-08-22T11:25:13.398Z,40.77
2022-08-22T11:28:00.800Z,40.93
2022-08-22T11:30:36.421Z,38.95
2022-08-22T11:33:32.509Z,39.54
2022-08-22T11:36:33.422Z,37.96
2022-08-22T11:39:10.000Z,38.71
2022-08-22T11:41:52.412Z,40.37
2022-08-22T11:44:50.082Z,38.61
2022-08-22T11:47:26.876Z,38.03
2022-08-22T11:50:25.149Z,36.58
2022-08-22T11:53:11.702Z,34.20
2022-08-22T11:55:50.943Z,35.55
2022-08-22T11:58:33.488Z,29.53
2022-08-22T12:01:17.408Z,31.50
2022-08-22T12:03:58.654Z,35.21
2022-08-22T12:06:51.309Z,37.91
2022-08-22T12:09:47.733Z,33.19
2022-08-22T12:12:20.230Z,37.78
2022-08-22T12:15:21.601Z,34.28
2022-08-22T12:18:21.298Z,37.93
2022-08-22T12:21:31.733Z,33.32
2022-08-22T12:24:19.246Z,34.93
2022-08-22T12:27:07.769Z,33.76
2022-08-22T12:30:13.830Z,34.69
2022-08-22T12:33:23.306Z,41.43
2022-08-22T12:35:57.074Z,35.45
2022-08-22T12:38:37.977Z,37.12
2022-08-22T12:41:28.219Z,36.51
2022-08-22T12:44:37.044Z,38.71
2022-08-22T12:47:12.297Z,39.06
2022-08-22T12:50:03.282Z,40.75
2022-08-22T12:52:38.827Z,39.37
2022-08-22T12:55:26.762Z,42.29
2022-08-22T12:58:20.086Z,39.84
2022-08-22T13:00:49.051Z,39.11
2022-08-22T13:03:29.779Z,41.37
2022-08-22T13:06:00.199Z,39.81
2022-08-22T13:08:32.559Z,43.58
2022-08-22T13:11:22.253Z,42.29
2022-08-22T13:13:56.457Z,39.09
2022-08-22T13:16:26.103Z,41.42
2022-08-22T13:18:57.552Z,41.94
2022-08-22T13:21:36.530Z,41.01
2022-08-22T13:24:52.644Z,40.60
2022-08-22T13:27:40.052Z,40.06
2022-08-22T13:30:31.836Z,42.59
2022-08-22T13:33:04.441Z,41.26
2022-08-22T13:35:51.673Z,43.42
2022-08-22T13:38:26.164Z,46.43
2022-08-22T13:40:55.504Z,44.68
2022-08-22T13:43:28.052Z,41.27
2022-08-22T13:46:01.826Z,40.64
2022-08-22T13:48:49.875Z,39.93
2022-08-22T13:51:56.713Z,41.60
2022-08-22T13:54:55.687Z,41.74
2022-08-22T13:57:38.672Z,42.62
2022-08-22T14:00:28.838Z,42.43
2022-08-22T14:03:05.557Z,44.91
2022-08-22T14:05:39.100Z,43.69
2022-08-22T14:08:18.505Z,42.16
2022-08-22T14:11:10.246Z,43.63
2022-08-22T14:13:44.613Z,44.47
2022-08-22T14:16:24.569Z,43.14
2022-08-22T14:18:57.690Z,44.85
2022-08-22T14:21:40.513Z,43.77
2022-08-22T14:24:27.218Z,46.86
2022-08-22T14:27:05.255Z,47.28
2022-08-22T14:29:50.378Z,44.83
2022-08-22T14:32:25.847Z,47.85
2022-08-22T14:35:01.708Z,47.32
2022-08-22T14:37:39.338Z,45.57
2022-08-22T14:40:09.604Z,45.67
2022-08-22T14:42:50.844Z,45.26
2022-08-22T14:45:30.453Z,47.83
2022-08-22T14:48:30.660Z,47.38
2022-08-22T14:51:00.850Z,47.14
2022-08-22T14:53:33.022Z,48.55
2022-08-22T14:56:05.482Z,48.02
2022-08-22T14:58:36.875Z,46.51
2022-08-22T15:01:10.840Z,48.16
2022-08-22T15:03:40.298Z,48.57
2022-08-22T15:06:13.424Z,51.37
2022-08-22T15:08:46.328Z,50.41
2022-08-22T15:11:21.869Z,47.97
2022-08-22T15:14:02.731Z,48.89
2022-08-22T15:16:56.012Z,48.48
2022-08-22T15:19:46.975Z,51.26
2022-08-22T15:22:27.698Z,48.53
2022-08-22T15:25:04.059Z,45.97
2022-08-22T15:27:35.629Z,50.94
2022-08-22T15:30:07.563Z,48.00
2022-08-22T15:32:48.835Z,48.92
2022-08-22T15:35:27.832Z,46.61
2022-08-22T15:38:01.739Z,46.19
2022-08-22T15:40:41.493Z,46.49
2022-08-22T15:43:35.245Z,46.81
2022-08-22T15:46:18.143Z,49.87
2022-08-22T15:48:54.626Z,49.53
2022-08-22T15:51:37.993Z,48.80
2022-08-22T15:54:24.830Z,48.24
2022-08-22T15:56:55.936Z,48.52
2022-08-22T15:59:31.431Z,51.59
2022-08-22T16:02:23.483Z,50.44
2022-08-22T16:04:54.480Z,49.88
2022-08-22T16:07:42.414Z,47.47
2022-08-22T16:10:24.059Z,51.67
2022-08-22T16:13:14.429Z,48.17
2022-08-22T16:15:46.880Z,48.23
2022-08-22T16:18:36.840Z,48.53
2022-08-22T16:21:08.400Z,51.57
2022-08-22T16:23:49.884Z,49.34
2022-08-22T16:26:31.289Z,53.01
2022-08-22T16:29:07.100Z,52.97
2022-08-22T16:31:48.829Z,51.60
2022-08-22T16:34:18.280Z,53.62
2022-08-22T16:37:08.064Z,52.09
2022-08-22T16:39:34.420Z,53.17
2022-08-22T16:42:13.058Z,54.97
2022-08-22T16:44:55.651Z,56.08
2022-08-22T16:47:32.593Z,55.26
2022-08-22T16:50:26.943Z,54.43
2022-08-22T16:52:58.254Z,53.13
2022-08-22T16:55:30.633Z,52.50
2022-08-22T16:58:18.128Z,53.64
2022-08-22T17:01:18.314Z,53.79
2022-08-22T17:04:00.052Z,55.11
2022-08-22T17:06:52.691Z,54.21
2022-08-22T17:09:49.219Z,53.52
2022-08-22T17:12:38.516Z,54.58
2022-08-22T17:15:23.257Z,56.02
2022-08-22T17:18:11.686Z,54.49
2022-08-22T17:21:00.629Z,56.11
2022-08-22T17:23:53.954Z,56.11
2022-08-22T17:26:30.837Z,57.36
2022-08-22T17:29:03.376Z,55.41
2022-08-22T17:31:59.341Z,56.66
2022-08-22T17:34:37.880Z,56.98
2022-08-22T17:37:17.977Z,55.55
2022-08-22T17:40:06.390Z,55.94
2022-08-22T17:42:37.523Z,56.33
2022-08-22T17:45:24.512Z,56.17
2022-08-22T17:48:12.031Z,56.78
2022-08-22T17:50:47.972Z,57.00
2022-08-22T17:53:30.372Z,57.63
2022-08-22T17:56:14.494Z,60.36
2022-08-22T17:58:54.285Z,61.63
2022-08-22T18:01:47.896Z,60.42
2022-08-22T18:04:22.207Z,62.04
2022-08-22T18:06:56.546Z,62.42
2022-08-22T18:09:31.215Z,59.62
2022-08-22T18:12:07.920Z,62.45
2022-08-22T18:14:55.139Z,62.51
2022-08-22T18:17:33.259Z,61.69
2022-08-22T18:20:16.868Z,61.60
2022-08-22T18:22:48.631Z,62.57
2022-08-22T18:25:18.131Z,63.64
2022-08-22T18:28:08.187Z,63.26
2022-08-22T18:30:49.047Z,64.00
2022-08-22T18:33:40.533Z,65.54
2022-08-22T18:36:10.633Z,63.47
2022-08-22T18:38:54.109Z,63.33
2022-08-22T18:41:28.629Z,64.96
2022-08-22T18:43:58.538Z,64.00
2022-08-22T18:46:27.541Z,64.17
2022-08-22T18:49:14.562Z,64.52
2022-08-22T18:51:41.619Z,63.69
2022-08-22T18:54:07.971Z,65.40
2022-08-22T18:56:43.387Z,64.39
2022-08-22T18:59:26.934Z,64.03
2022-08-22T19:02:37.171Z,64.77
2022-08-22T19:05:18.797Z,65.70
2022-08-22T19:07:57.239Z,65.35
2022-08-22T19:10:46.594Z,64.97
2022-08-22T19:13:43.065Z,67.13
2022-08-22T19:16:57.164Z,68.27
2022-08-22T19:20:01.198Z,67.02
2022-08-22T19:22:34.395Z,67.07
2022-08-22T19:25:15.711Z,67.24
2022-08-22T19:28:14.148Z,70.76
2022-08-22T19:30:41.028Z,69.92
2022-08-22T19:33:12.188Z,70.74
2022-08-22T19:35:41.429Z,71.62
2022-08-22T19:38:09.600Z,71.90
2022-08-22T19:40:44.788Z,71.27
2022-08-22T19:43:29.979Z,72.73
2022-08-22T19:45:58.599Z,72.38
2022-08-22T19:48:44.430Z,73.38
2022-08-22T19:51:12.769Z,73.87
2022-08-22T19:53:47.333Z,73.82
2022-08-22T19:56:43.519Z,74.04
2022-08-22T19:59:21.836Z,73.99
2022-08-22T20:02:01.863Z,73.87
2022-08-22T20:04:50.614Z,74.55
2022-08-22T20:07:52.985Z,75.65
2022-08-22T20:10:25.239Z,76.52
2022-08-22T20:13:10.266Z,75.28
2022-08-22T20:16:01.451Z,76.21
2022-08-22T20:19:06.597Z,75.52
2022-08-22T20:21:55.078Z,74.51
2022-08-22T20:24:44.124Z,74.90
2022-08-22T20:27:18.123Z,73.95
2022-08-22T20:29:52.988Z,74.96
2022-08-22T20:32:23.206Z,75.21
2022-08-22T20:34:55.180Z,74.66
2022-08-22T20:37:40.200Z,75.63
2022-08-22T20:40:54.639Z,75.37
2022-08-22T20:43:47.292Z,75.93
2022-08-22T20:46:54.983Z,75.25
2022-08-22T20:49:23.948Z,76.08
2022-08-22T20:51:54.982Z,76.28
2022-08-22T20:54:25.372Z,76.04
2022-08-22T20:57:10.100Z,76.45
2022-08-22T20:59:59.334Z,77.18
2022-08-22T21:02:33.804Z,78.57
2022-08-22T21:05:18.490Z,78.33
2022-08-22T21:07:48.553Z,77.92
2022-08-22T21:10:40.135Z,79.07
2022-08-22T21:13:10.732Z,79.26
2022-08-22T21:15:57.587Z,79.51
2022-08-22T21:18:32.058Z,79.25
2022-08-22T21:21:34.474Z,79.60
2022-08-22T21:24:06.422Z,79.15
2022-08-22T21:26:37.513Z,79.09
2022-08-22T21:29:13.085Z,79.04
2022-08-22T21:31:44.538Z,80.09
2022-08-22T21:34:17.222Z,80.32
2022-08-22T21:36:43.851Z,80.79
2022-08-22T21:39:19.705Z,81.05
2022-08-22T21:42:01.449Z,80.45
2022-08-22T21:44:30.949Z,80.49
2022-08-22T21:47:14.768Z,80.37
2022-08-22T21:50:15.811Z,80.31
2022-08-22T21:52:55.928Z,80.29
2022-08-22T21:55:37.553Z,80.75
2022-08-22T21:58:07.341Z,81.16
2022-08-22T22:00:49.649Z,81.50
2022-08-22T22:03:19.303Z,81.24
2022-08-22T22:05:46.871Z,81.66
2022-08-22T22:08:13.490Z,82.12
2022-08-22T22:10:42.184Z,81.92
2022-08-22T22:13:09.037Z,81.97
2022-08-22T22:15:45.748Z,82.87
2022-08-22T22:18:14.587Z,83.32
2022-08-22T22:20:42.081Z,83.04
2022-08-22T22:23:09.512Z,82.79
2022-08-22T22:25:41.357Z,82.85
2022-08-22T22:28:14.657Z,83.59
2022-08-22T22:30:42.240Z,83.68
2022-08-22T22:33:09.467Z,83.39
2022-08-22T22:35:39.132Z,84.20
2022-08-22T22:38:06.351Z,83.78
2022-08-22T22:40:32.897Z,84.10
2022-08-22T22:42:59.372Z,83.92
2022-08-22T22:45:25.902Z,84.15
2022-08-22T22:47:52.748Z,84.12
2022-08-22T22:50:19.532Z,84.02
2022-08-22T22:52:45.990Z,83.70
2022-08-22T22:55:12.742Z,83.80
2022-08-22T22:57:58.463Z,84.74
2022-08-22T23:00:30.539Z,85.23
2022-08-22T23:02:59.089Z,84.93
2022-08-22T23:05:25.533Z,85.52
2022-08-22T23:07:51.911Z,85.38
2022-08-22T23:10:21.958Z,85.14
2022-08-22T23:12:48.898Z,85.00
2022-08-22T23:15:15.313Z,85.05
2022-08-22T23:17:42.550Z,85.79
2022-08-22T23:20:09.307Z,85.33
2022-08-22T23:22:35.776Z,85.26
2022-08-22T23:25:02.360Z,85.37
2022-08-22T23:27:28.900Z,85.62
2022-08-22T23:29:55.379Z,85.80
2022-08-22T23:32:21.755Z,85.86
2022-08-22T23:34:48.803Z,86.46
2022-08-22T23:37:20.448Z,86.06
2022-08-22T23:39:47.733Z,86.67
2022-08-22T23:42:15.178Z,86.63
2022-08-22T23:44:42.424Z,86.61
2022-08-22T23:47:10.135Z,87.19
2022-08-22T23:49:38.643Z,87.89
2022-08-22T23:52:06.905Z,87.56
2022-08-22T23:54:34.170Z,87.47
2022-08-22T23:57:11.599Z,88.11
2022-08-22T23:59:44.555Z,88.24
